sensor_id;sensor_type;location;lat;lon;timestamp;P1;durP1;ratioP1;P2;durP2;ratioP2
417;SDS011;49;48.530;9.200;2022-07-24T00:00:26;15.73;;;11.70;;
417;SDS011;49;48.530;9.200;2022-07-24T00:02:53;19.00;;;11.77;;
417;SDS011;49;48.530;9.200;2022-07-24T00:05:22;21.00;;;10.70;;
417;SDS011;49;48.530;9.200;2022-07-24T00:07:49;17.77;;;11.47;;
417;SDS011;49;48.530;9.200;2022-07-24T00:10:16;15.27;;;10.43;;
417;SDS011;49;48.530;9.200;2022-07-24T00:12:43;26.90;;;12.20;;
417;SDS011;49;48.530;9.200;2022-07-24T00:15:10;11.90;;;10.57;;
417;SDS011;49;48.530;9.200;2022-07-24T00:17:37;17.27;;;9.40;;
417;SDS011;49;48.530;9.200;2022-07-24T00:20:05;15.13;;;10.40;;
417;SDS011;49;48.530;9.200;2022-07-24T00:22:35;18.47;;;12.67;;
417;SDS011;49;48.530;9.200;2022-07-24T00:25:02;16.33;;;12.43;;
417;SDS011;49;48.530;9.200;2022-07-24T00:27:30;19.30;;;10.53;;
417;SDS011;49;48.530;9.200;2022-07-24T00:29:57;23.07;;;12.43;;
417;SDS011;49;48.530;9.200;2022-07-24T00:32:24;17.97;;;11.57;;
417;SDS011;49;48.530;9.200;2022-07-24T00:34:51;18.53;;;11.90;;
417;SDS011;49;48.530;9.200;2022-07-24T00:37:18;15.20;;;10.97;;
417;SDS011;49;48.530;9.200;2022-07-24T00:39:46;16.97;;;11.90;;
417;SDS011;49;48.530;9.200;2022-07-24T00:42:13;20.33;;;11.43;;
417;SDS011;49;48.530;9.200;2022-07-24T00:44:41;14.43;;;10.83;;
417;SDS011;49;48.530;9.200;2022-07-24T00:47:08;15.13;;;10.67;;
417;SDS011;49;48.530;9.200;2022-07-24T00:49:35;16.13;;;11.03;;
417;SDS011;49;48.530;9.200;2022-07-24T00:52:02;16.73;;;11.17;;
417;SDS011;49;48.530;9.200;2022-07-24T00:54:29;17.10;;;10.80;;
417;SDS011;49;48.530;9.200;2022-07-24T00:56:58;20.13;;;11.47;;
417;SDS011;49;48.530;9.200;2022-07-24T00:59:25;15.90;;;11.40;;
417;SDS011;49;48.530;9.200;2022-07-24T01:01:52;30.53;;;11.20;;
417;SDS011;49;48.530;9.200;2022-07-24T01:04:19;15.47;;;10.73;;
417;SDS011;49;48.530;9.200;2022-07-24T01:06:46;15.00;;;11.23;;
417;SDS011;49;48.530;9.200;2022-07-24T01:09:14;19.33;;;11.20;;
417;SDS011;49;48.530;9.200;2022-07-24T01:11:42;21.23;;;11.93;;
417;SDS011;49;48.530;9.200;2022-07-24T01:14:10;14.00;;;10.37;;
417;SDS011;49;48.530;9.200;2022-07-24T01:16:37;14.70;;;10.33;;
417;SDS011;49;48.530;9.200;2022-07-24T01:19:04;14.83;;;11.43;;
417;SDS011;49;48.530;9.200;2022-07-24T01:21:33;11.73;;;9.50;;
417;SDS011;49;48.530;9.200;2022-07-24T01:24:00;16.77;;;10.90;;
417;SDS011;49;48.530;9.200;2022-07-24T01:26:27;18.30;;;11.57;;
417;SDS011;49;48.530;9.200;2022-07-24T01:28:54;15.90;;;11.27;;
417;SDS011;49;48.530;9.200;2022-07-24T01:31:21;18.80;;;11.57;;
417;SDS011;49;48.530;9.200;2022-07-24T01:33:48;16.13;;;11.00;;
417;SDS011;49;48.530;9.200;2022-07-24T01:36:15;19.17;;;11.57;;
417;SDS011;49;48.530;9.200;2022-07-24T01:38:44;15.60;;;10.77;;
417;SDS011;49;48.530;9.200;2022-07-24T01:41:11;14.43;;;10.90;;
417;SDS011;49;48.530;9.200;2022-07-24T01:43:38;25.07;;;11.70;;
417;SDS011;49;48.530;9.200;2022-07-24T01:46:05;14.93;;;11.30;;
417;SDS011;49;48.530;9.200;2022-07-24T01:48:32;14.77;;;11.60;;
417;SDS011;49;48.530;9.200;2022-07-24T01:50:59;16.17;;;10.30;;
417;SDS011;49;48.530;9.200;2022-07-24T01:53:26;16.40;;;10.20;;
417;SDS011;49;48.530;9.200;2022-07-24T01:55:55;14.20;;;11.30;;
417;SDS011;49;48.530;9.200;2022-07-24T01:58:22;17.53;;;11.50;;
417;SDS011;49;48.530;9.200;2022-07-24T02:00:49;16.90;;;12.60;;
417;SDS011;49;48.530;9.200;2022-07-24T02:03:17;14.87;;;10.87;;
417;SDS011;49;48.530;9.200;2022-07-24T02:05:44;14.33;;;11.70;;
417;SDS011;49;48.530;9.200;2022-07-24T02:08:11;17.57;;;11.50;;
417;SDS011;49;48.530;9.200;2022-07-24T02:10:39;15.00;;;10.83;;
417;SDS011;49;48.530;9.200;2022-07-24T02:13:08;14.97;;;10.63;;
417;SDS011;49;48.530;9.200;2022-07-24T02:15:35;17.53;;;12.03;;
417;SDS011;49;48.530;9.200;2022-07-24T02:18:02;18.17;;;11.63;;
417;SDS011;49;48.530;9.200;2022-07-24T02:20:30;16.60;;;11.60;;
417;SDS011;49;48.530;9.200;2022-07-24T02:22:57;12.90;;;10.57;;
417;SDS011;49;48.530;9.200;2022-07-24T02:25:24;15.83;;;10.90;;
417;SDS011;49;48.530;9.200;2022-07-24T02:27:51;19.33;;;11.50;;
417;SDS011;49;48.530;9.200;2022-07-24T02:30:20;16.00;;;11.30;;
417;SDS011;49;48.530;9.200;2022-07-24T02:32:49;14.57;;;10.53;;
417;SDS011;49;48.530;9.200;2022-07-24T02:35:16;15.50;;;11.53;;
417;SDS011;49;48.530;9.200;2022-07-24T02:37:43;29.83;;;12.63;;
417;SDS011;49;48.530;9.200;2022-07-24T02:40:12;21.93;;;11.80;;
417;SDS011;49;48.530;9.200;2022-07-24T02:42:40;23.83;;;13.70;;
417;SDS011;49;48.530;9.200;2022-07-24T02:45:07;16.77;;;10.70;;
417;SDS011;49;48.530;9.200;2022-07-24T02:47:38;14.23;;;10.63;;
417;SDS011;49;48.530;9.200;2022-07-24T02:50:12;15.43;;;11.17;;
417;SDS011;49;48.530;9.200;2022-07-24T02:52:39;16.53;;;11.20;;
417;SDS011;49;48.530;9.200;2022-07-24T02:55:06;16.33;;;11.50;;
417;SDS011;49;48.530;9.200;2022-07-24T02:57:34;14.37;;;10.30;;
417;SDS011;49;48.530;9.200;2022-07-24T03:00:02;13.27;;;10.23;;
417;SDS011;49;48.530;9.200;2022-07-24T03:02:31;13.30;;;10.63;;
417;SDS011;49;48.530;9.200;2022-07-24T03:04:59;15.73;;;10.20;;
417;SDS011;49;48.530;9.200;2022-07-24T03:07:27;20.17;;;10.50;;
417;SDS011;49;48.530;9.200;2022-07-24T03:09:54;18.03;;;11.00;;
417;SDS011;49;48.530;9.200;2022-07-24T03:12:21;16.63;;;10.97;;
417;SDS011;49;48.530;9.200;2022-07-24T03:14:48;13.43;;;11.17;;
417;SDS011;49;48.530;9.200;2022-07-24T03:17:15;27.13;;;11.60;;
417;SDS011;49;48.530;9.200;2022-07-24T03:19:42;16.30;;;9.73;;
417;SDS011;49;48.530;9.200;2022-07-24T03:22:11;20.67;;;10.67;;
417;SDS011;49;48.530;9.200;2022-07-24T03:24:38;14.40;;;11.07;;
417;SDS011;49;48.530;9.200;2022-07-24T03:27:05;19.43;;;11.60;;
417;SDS011;49;48.530;9.200;2022-07-24T03:29:32;15.73;;;11.03;;
417;SDS011;49;48.530;9.200;2022-07-24T03:31:59;14.40;;;11.90;;
417;SDS011;49;48.530;9.200;2022-07-24T03:34:27;15.17;;;12.07;;
417;SDS011;49;48.530;9.200;2022-07-24T03:36:54;17.60;;;11.57;;
417;SDS011;49;48.530;9.200;2022-07-24T03:39:22;13.23;;;10.83;;
417;SDS011;49;48.530;9.200;2022-07-24T03:41:49;15.47;;;11.77;;
417;SDS011;49;48.530;9.200;2022-07-24T03:44:16;25.43;;;12.37;;
417;SDS011;49;48.530;9.200;2022-07-24T03:46:43;17.33;;;12.00;;
417;SDS011;49;48.530;9.200;2022-07-24T03:49:10;21.57;;;12.70;;
417;SDS011;49;48.530;9.200;2022-07-24T03:51:37;19.80;;;11.60;;
417;SDS011;49;48.530;9.200;2022-07-24T03:54:04;20.40;;;11.87;;
417;SDS011;49;48.530;9.200;2022-07-24T03:56:33;14.20;;;11.30;;
417;SDS011;49;48.530;9.200;2022-07-24T03:59:00;14.77;;;11.63;;
417;SDS011;49;48.530;9.200;2022-07-24T04:01:27;18.13;;;12.37;;
417;SDS011;49;48.530;9.200;2022-07-24T04:03:54;17.33;;;11.30;;
417;SDS011;49;48.530;9.200;2022-07-24T04:06:23;17.97;;;12.13;;
417;SDS011;49;48.530;9.200;2022-07-24T04:08:50;15.23;;;11.63;;
417;SDS011;49;48.530;9.200;2022-07-24T04:11:17;15.57;;;12.17;;
417;SDS011;49;48.530;9.200;2022-07-24T04:13:45;17.37;;;11.00;;
417;SDS011;49;48.530;9.200;2022-07-24T04:16:12;17.87;;;12.47;;
417;SDS011;49;48.530;9.200;2022-07-24T04:18:39;16.70;;;11.97;;
417;SDS011;49;48.530;9.200;2022-07-24T04:21:07;16.97;;;11.93;;
417;SDS011;49;48.530;9.200;2022-07-24T04:23:34;17.10;;;12.67;;
417;SDS011;49;48.530;9.200;2022-07-24T04:26:01;20.30;;;12.10;;
417;SDS011;49;48.530;9.200;2022-07-24T04:28:28;26.80;;;12.00;;
417;SDS011;49;48.530;9.200;2022-07-24T04:30:57;20.07;;;11.60;;
417;SDS011;49;48.530;9.200;2022-07-24T04:33:24;14.50;;;10.57;;
417;SDS011;49;48.530;9.200;2022-07-24T04:35:51;15.77;;;11.40;;
417;SDS011;49;48.530;9.200;2022-07-24T04:38:18;17.10;;;10.87;;
417;SDS011;49;48.530;9.200;2022-07-24T04:40:45;18.30;;;10.77;;
417;SDS011;49;48.530;9.200;2022-07-24T04:43:12;15.83;;;10.63;;
417;SDS011;49;48.530;9.200;2022-07-24T04:45:39;16.73;;;11.27;;
417;SDS011;49;48.530;9.200;2022-07-24T04:48:07;13.10;;;10.40;;
417;SDS011;49;48.530;9.200;2022-07-24T04:50:34;15.57;;;10.90;;
417;SDS011;49;48.530;9.200;2022-07-24T04:53:01;20.93;;;11.53;;
417;SDS011;49;48.530;9.200;2022-07-24T04:55:28;15.77;;;11.10;;
417;SDS011;49;48.530;9.200;2022-07-24T04:57:55;24.90;;;10.40;;
417;SDS011;49;48.530;9.200;2022-07-24T05:00:22;18.60;;;10.10;;
417;SDS011;49;48.530;9.200;2022-07-24T05:02:49;13.80;;;10.10;;
417;SDS011;49;48.530;9.200;2022-07-24T05:05:18;11.73;;;9.70;;
417;SDS011;49;48.530;9.200;2022-07-24T05:07:46;14.13;;;10.20;;
417;SDS011;49;48.530;9.200;2022-07-24T05:10:13;14.40;;;10.53;;
417;SDS011;49;48.530;9.200;2022-07-24T05:12:40;13.40;;;9.87;;
417;SDS011;49;48.530;9.200;2022-07-24T05:15:07;14.40;;;10.67;;
417;SDS011;49;48.530;9.200;2022-07-24T05:17:35;16.70;;;10.90;;
417;SDS011;49;48.530;9.200;2022-07-24T05:20:02;18.60;;;11.00;;
417;SDS011;49;48.530;9.200;2022-07-24T05:22:31;17.70;;;10.23;;
417;SDS011;49;48.530;9.200;2022-07-24T05:24:58;21.70;;;10.90;;
417;SDS011;49;48.530;9.200;2022-07-24T05:27:25;14.07;;;10.23;;
417;SDS011;49;48.530;9.200;2022-07-24T05:29:52;13.20;;;9.63;;
417;SDS011;49;48.530;9.200;2022-07-24T05:32:19;18.73;;;10.40;;
417;SDS011;49;48.530;9.200;2022-07-24T05:34:46;17.70;;;10.90;;
417;SDS011;49;48.530;9.200;2022-07-24T05:37:13;16.47;;;9.47;;
417;SDS011;49;48.530;9.200;2022-07-24T05:39:42;14.37;;;10.30;;
417;SDS011;49;48.530;9.200;2022-07-24T05:42:09;16.63;;;9.70;;
417;SDS011;49;48.530;9.200;2022-07-24T05:44:36;18.03;;;10.57;;
417;SDS011;49;48.530;9.200;2022-07-24T05:47:04;19.17;;;11.33;;
417;SDS011;49;48.530;9.200;2022-07-24T05:49:31;20.20;;;9.97;;
417;SDS011;49;48.530;9.200;2022-07-24T05:51:58;14.03;;;10.57;;
417;SDS011;49;48.530;9.200;2022-07-24T05:54:25;13.07;;;9.70;;
417;SDS011;49;48.530;9.200;2022-07-24T05:56:54;26.53;;;11.10;;
417;SDS011;49;48.530;9.200;2022-07-24T05:59:22;16.87;;;11.30;;
417;SDS011;49;48.530;9.200;2022-07-24T06:01:49;14.40;;;10.07;;
417;SDS011;49;48.530;9.200;2022-07-24T06:04:16;18.17;;;10.80;;
417;SDS011;49;48.530;9.200;2022-07-24T06:06:43;17.33;;;9.97;;
417;SDS011;49;48.530;9.200;2022-07-24T06:09:11;16.23;;;10.53;;
417;SDS011;49;48.530;9.200;2022-07-24T06:11:38;11.23;;;9.17;;
417;SDS011;49;48.530;9.200;2022-07-24T06:14:06;22.67;;;9.77;;
417;SDS011;49;48.530;9.200;2022-07-24T06:16:33;12.70;;;9.27;;
417;SDS011;49;48.530;9.200;2022-07-24T06:19:00;12.23;;;9.50;;
417;SDS011;49;48.530;9.200;2022-07-24T06:21:27;15.87;;;9.13;;
417;SDS011;49;48.530;9.200;2022-07-24T06:23:54;13.50;;;8.20;;
417;SDS011;49;48.530;9.200;2022-07-24T06:26:21;10.70;;;8.20;;
417;SDS011;49;48.530;9.200;2022-07-24T06:28:48;12.37;;;7.80;;
417;SDS011;49;48.530;9.200;2022-07-24T06:31:17;10.00;;;7.90;;
417;SDS011;49;48.530;9.200;2022-07-24T06:33:43;10.93;;;7.70;;
417;SDS011;49;48.530;9.200;2022-07-24T06:36:10;11.27;;;6.70;;
417;SDS011;49;48.530;9.200;2022-07-24T06:38:37;11.90;;;7.23;;
417;SDS011;49;48.530;9.200;2022-07-24T06:41:04;14.17;;;7.87;;
417;SDS011;49;48.530;9.200;2022-07-24T06:43:31;11.90;;;7.70;;
417;SDS011;49;48.530;9.200;2022-07-24T06:45:58;12.23;;;8.10;;
417;SDS011;49;48.530;9.200;2022-07-24T06:48:26;11.23;;;7.53;;
417;SDS011;49;48.530;9.200;2022-07-24T06:50:55;14.20;;;6.70;;
417;SDS011;49;48.530;9.200;2022-07-24T06:53:22;11.77;;;7.60;;
417;SDS011;49;48.530;9.200;2022-07-24T06:55:49;12.20;;;7.23;;
417;SDS011;49;48.530;9.200;2022-07-24T06:58:18;13.00;;;6.80;;
417;SDS011;49;48.530;9.200;2022-07-24T07:00:45;13.80;;;8.37;;
417;SDS011;49;48.530;9.200;2022-07-24T07:03:13;11.97;;;7.50;;
417;SDS011;49;48.530;9.200;2022-07-24T07:05:42;11.33;;;6.77;;
417;SDS011;49;48.530;9.200;2022-07-24T07:08:09;15.50;;;7.60;;
417;SDS011;49;48.530;9.200;2022-07-24T07:10:36;21.30;;;6.90;;
417;SDS011;49;48.530;9.200;2022-07-24T07:13:05;6.87;;;5.87;;
417;SDS011;49;48.530;9.200;2022-07-24T07:15:31;14.23;;;7.07;;
417;SDS011;49;48.530;9.200;2022-07-24T07:17:58;10.50;;;6.67;;
417;SDS011;49;48.530;9.200;2022-07-24T07:20:25;11.43;;;6.80;;
417;SDS011;49;48.530;9.200;2022-07-24T07:22:54;11.57;;;6.10;;
417;SDS011;49;48.530;9.200;2022-07-24T07:25:21;8.17;;;6.40;;
417;SDS011;49;48.530;9.200;2022-07-24T07:27:48;7.37;;;6.40;;
417;SDS011;49;48.530;9.200;2022-07-24T07:30:15;8.90;;;7.03;;
417;SDS011;49;48.530;9.200;2022-07-24T07:32:42;8.43;;;6.30;;
417;SDS011;49;48.530;9.200;2022-07-24T07:35:10;8.17;;;6.17;;
417;SDS011;49;48.530;9.200;2022-07-24T07:37:37;12.47;;;5.90;;
417;SDS011;49;48.530;9.200;2022-07-24T07:40:06;9.93;;;6.50;;
417;SDS011;49;48.530;9.200;2022-07-24T07:42:34;8.07;;;5.80;;
417;SDS011;49;48.530;9.200;2022-07-24T07:45:01;10.67;;;6.93;;
417;SDS011;49;48.530;9.200;2022-07-24T07:47:28;11.80;;;6.33;;
417;SDS011;49;48.530;9.200;2022-07-24T07:49:55;8.17;;;5.70;;
417;SDS011;49;48.530;9.200;2022-07-24T07:52:22;8.47;;;6.13;;
417;SDS011;49;48.530;9.200;2022-07-24T07:54:50;10.60;;;6.10;;
417;SDS011;49;48.530;9.200;2022-07-24T07:57:19;13.57;;;6.03;;
417;SDS011;49;48.530;9.200;2022-07-24T07:59:46;11.00;;;6.20;;
417;SDS011;49;48.530;9.200;2022-07-24T08:02:13;17.13;;;7.37;;
417;SDS011;49;48.530;9.200;2022-07-24T08:04:40;8.80;;;5.13;;
417;SDS011;49;48.530;9.200;2022-07-24T08:07:07;10.73;;;6.67;;
417;SDS011;49;48.530;9.200;2022-07-24T08:09:34;8.17;;;6.27;;
417;SDS011;49;48.530;9.200;2022-07-24T08:12:02;12.00;;;6.13;;
417;SDS011;49;48.530;9.200;2022-07-24T08:14:32;8.40;;;6.33;;
417;SDS011;49;48.530;9.200;2022-07-24T08:16:59;9.50;;;6.10;;
417;SDS011;49;48.530;9.200;2022-07-24T08:19:26;7.60;;;6.30;;
417;SDS011;49;48.530;9.200;2022-07-24T08:21:53;8.43;;;6.73;;
417;SDS011;49;48.530;9.200;2022-07-24T08:24:20;9.70;;;6.43;;
417;SDS011;49;48.530;9.200;2022-07-24T08:26:48;8.83;;;6.40;;
417;SDS011;49;48.530;9.200;2022-07-24T08:29:15;11.03;;;6.00;;
417;SDS011;49;48.530;9.200;2022-07-24T08:31:43;8.93;;;6.90;;
417;SDS011;49;48.530;9.200;2022-07-24T08:34:10;6.97;;;6.03;;
417;SDS011;49;48.530;9.200;2022-07-24T08:36:37;13.63;;;6.57;;
417;SDS011;49;48.530;9.200;2022-07-24T08:39:05;11.70;;;6.07;;
417;SDS011;49;48.530;9.200;2022-07-24T08:41:35;5.83;;;5.30;;
417;SDS011;49;48.530;9.200;2022-07-24T08:44:02;9.27;;;5.57;;
417;SDS011;49;48.530;9.200;2022-07-24T08:46:30;15.33;;;5.80;;
417;SDS011;49;48.530;9.200;2022-07-24T08:49:01;9.07;;;5.90;;
417;SDS011;49;48.530;9.200;2022-07-24T08:51:30;14.73;;;6.40;;
417;SDS011;49;48.530;9.200;2022-07-24T08:54:01;10.30;;;6.37;;
417;SDS011;49;48.530;9.200;2022-07-24T08:56:28;10.23;;;6.30;;
417;SDS011;49;48.530;9.200;2022-07-24T08:58:58;11.90;;;6.10;;
417;SDS011;49;48.530;9.200;2022-07-24T09:01:26;8.53;;;6.30;;
417;SDS011;49;48.530;9.200;2022-07-24T09:04:00;10.23;;;5.43;;
417;SDS011;49;48.530;9.200;2022-07-24T09:06:28;19.40;;;5.70;;
417;SDS011;49;48.530;9.200;2022-07-24T09:09:03;12.43;;;6.20;;
417;SDS011;49;48.530;9.200;2022-07-24T09:11:32;11.70;;;6.80;;
417;SDS011;49;48.530;9.200;2022-07-24T09:14:02;10.20;;;6.60;;
417;SDS011;49;48.530;9.200;2022-07-24T09:16:47;10.47;;;6.20;;
417;SDS011;49;48.530;9.200;2022-07-24T09:19:16;8.17;;;6.40;;
417;SDS011;49;48.530;9.200;2022-07-24T09:21:43;13.07;;;6.53;;
417;SDS011;49;48.530;9.200;2022-07-24T09:24:15;14.77;;;6.30;;
417;SDS011;49;48.530;9.200;2022-07-24T09:26:46;10.07;;;6.57;;
417;SDS011;49;48.530;9.200;2022-07-24T09:29:14;9.00;;;6.37;;
417;SDS011;49;48.530;9.200;2022-07-24T09:31:52;12.83;;;6.83;;
417;SDS011;49;48.530;9.200;2022-07-24T09:34:22;9.13;;;6.73;;
417;SDS011;49;48.530;9.200;2022-07-24T09:36:56;10.90;;;6.93;;
417;SDS011;49;48.530;9.200;2022-07-24T09:39:25;7.87;;;6.37;;
417;SDS011;49;48.530;9.200;2022-07-24T09:41:57;13.23;;;6.53;;
417;SDS011;49;48.530;9.200;2022-07-24T09:44:25;12.43;;;7.87;;
417;SDS011;49;48.530;9.200;2022-07-24T09:46:57;14.80;;;6.80;;
417;SDS011;49;48.530;9.200;2022-07-24T09:49:27;12.70;;;7.60;;
417;SDS011;49;48.530;9.200;2022-07-24T09:52:11;14.37;;;7.87;;
417;SDS011;49;48.530;9.200;2022-07-24T09:54:42;11.83;;;6.70;;
417;SDS011;49;48.530;9.200;2022-07-24T09:57:14;12.30;;;7.10;;
417;SDS011;49;48.530;9.200;2022-07-24T09:59:44;9.27;;;6.60;;
417;SDS011;49;48.530;9.200;2022-07-24T10:02:14;10.80;;;6.37;;
417;SDS011;49;48.530;9.200;2022-07-24T10:04:49;9.00;;;7.10;;
417;SDS011;49;48.530;9.200;2022-07-24T10:07:18;11.20;;;6.87;;
417;SDS011;49;48.530;9.200;2022-07-24T10:09:47;19.43;;;7.00;;
417;SDS011;49;48.530;9.200;2022-07-24T10:12:16;10.77;;;7.30;;
417;SDS011;49;48.530;9.200;2022-07-24T10:14:45;9.10;;;6.40;;
417;SDS011;49;48.530;9.200;2022-07-24T10:17:14;14.00;;;7.07;;
417;SDS011;49;48.530;9.200;2022-07-24T10:19:42;9.13;;;6.30;;
417;SDS011;49;48.530;9.200;2022-07-24T10:22:13;9.40;;;6.20;;
417;SDS011;49;48.530;9.200;2022-07-24T10:27:31;11.27;;;8.03;;
417;SDS011;49;48.530;9.200;2022-07-24T10:30:00;12.53;;;7.70;;
417;SDS011;49;48.530;9.200;2022-07-24T10:32:31;12.43;;;7.20;;
417;SDS011;49;48.530;9.200;2022-07-24T10:35:06;11.30;;;7.23;;
417;SDS011;49;48.530;9.200;2022-07-24T10:37:41;18.03;;;6.50;;
417;SDS011;49;48.530;9.200;2022-07-24T10:40:18;8.63;;;7.10;;
417;SDS011;49;48.530;9.200;2022-07-24T10:45:37;10.83;;;7.00;;
417;SDS011;49;48.530;9.200;2022-07-24T10:48:24;9.77;;;6.70;;
417;SDS011;49;48.530;9.200;2022-07-24T10:51:01;9.40;;;7.30;;
417;SDS011;49;48.530;9.200;2022-07-24T10:53:49;13.60;;;6.77;;
417;SDS011;49;48.530;9.200;2022-07-24T10:56:26;8.87;;;6.87;;
417;SDS011;49;48.530;9.200;2022-07-24T10:59:04;10.60;;;6.90;;
417;SDS011;49;48.530;9.200;2022-07-24T11:01:36;17.87;;;6.40;;
417;SDS011;49;48.530;9.200;2022-07-24T11:04:26;12.90;;;7.10;;
417;SDS011;49;48.530;9.200;2022-07-24T11:07:07;12.30;;;7.30;;
417;SDS011;49;48.530;9.200;2022-07-24T11:12:32;12.37;;;7.40;;
417;SDS011;49;48.530;9.200;2022-07-24T11:15:07;13.43;;;8.10;;
417;SDS011;49;48.530;9.200;2022-07-24T11:17:52;17.10;;;6.93;;
417;SDS011;49;48.530;9.200;2022-07-24T11:20:20;11.00;;;6.97;;
417;SDS011;49;48.530;9.200;2022-07-24T11:22:50;12.80;;;7.43;;
417;SDS011;49;48.530;9.200;2022-07-24T11:25:20;9.07;;;6.70;;
417;SDS011;49;48.530;9.200;2022-07-24T11:27:50;24.03;;;6.80;;
417;SDS011;49;48.530;9.200;2022-07-24T11:30:22;9.00;;;6.50;;
417;SDS011;49;48.530;9.200;2022-07-24T11:32:50;16.13;;;7.43;;
417;SDS011;49;48.530;9.200;2022-07-24T11:35:25;14.23;;;7.20;;
417;SDS011;49;48.530;9.200;2022-07-24T11:38:07;14.17;;;7.63;;
417;SDS011;49;48.530;9.200;2022-07-24T11:40:36;9.40;;;6.77;;
417;SDS011;49;48.530;9.200;2022-07-24T11:43:04;7.93;;;6.90;;
417;SDS011;49;48.530;9.200;2022-07-24T11:45:34;13.93;;;7.47;;
417;SDS011;49;48.530;9.200;2022-07-24T11:48:01;12.73;;;7.00;;
417;SDS011;49;48.530;9.200;2022-07-24T11:50:28;12.97;;;7.30;;
417;SDS011;49;48.530;9.200;2022-07-24T11:52:56;17.83;;;7.60;;
417;SDS011;49;48.530;9.200;2022-07-24T11:55:23;7.73;;;6.20;;
417;SDS011;49;48.530;9.200;2022-07-24T11:57:53;10.80;;;6.50;;
417;SDS011;49;48.530;9.200;2022-07-24T12:00:22;9.17;;;6.80;;
417;SDS011;49;48.530;9.200;2022-07-24T12:02:52;13.80;;;6.83;;
417;SDS011;49;48.530;9.200;2022-07-24T12:05:23;22.73;;;7.07;;
417;SDS011;49;48.530;9.200;2022-07-24T12:07:51;10.67;;;7.07;;
417;SDS011;49;48.530;9.200;2022-07-24T12:10:21;10.70;;;7.00;;
417;SDS011;49;48.530;9.200;2022-07-24T12:12:49;19.30;;;7.33;;
417;SDS011;49;48.530;9.200;2022-07-24T12:15:21;9.00;;;6.40;;
417;SDS011;49;48.530;9.200;2022-07-24T12:17:52;10.37;;;6.90;;
417;SDS011;49;48.530;9.200;2022-07-24T12:20:23;12.10;;;6.33;;
417;SDS011;49;48.530;9.200;2022-07-24T12:22:51;10.20;;;6.33;;
417;SDS011;49;48.530;9.200;2022-07-24T12:25:18;9.70;;;7.20;;
417;SDS011;49;48.530;9.200;2022-07-24T12:27:58;9.00;;;6.73;;
417;SDS011;49;48.530;9.200;2022-07-24T12:30:40;11.30;;;6.70;;
417;SDS011;49;48.530;9.200;2022-07-24T12:36:06;12.40;;;7.00;;
417;SDS011;49;48.530;9.200;2022-07-24T12:39:23;8.17;;;6.03;;
417;SDS011;49;48.530;9.200;2022-07-24T12:44:38;11.20;;;6.53;;
417;SDS011;49;48.530;9.200;2022-07-24T12:47:09;10.50;;;6.67;;
417;SDS011;49;48.530;9.200;2022-07-24T12:49:39;9.20;;;6.70;;
417;SDS011;49;48.530;9.200;2022-07-24T12:52:22;9.80;;;6.70;;
417;SDS011;49;48.530;9.200;2022-07-24T12:55:33;12.53;;;7.37;;
417;SDS011;49;48.530;9.200;2022-07-24T13:11:21;9.30;;;6.53;;
417;SDS011;49;48.530;9.200;2022-07-24T13:13:48;15.60;;;7.87;;
417;SDS011;49;48.530;9.200;2022-07-24T13:16:15;9.30;;;7.40;;
417;SDS011;49;48.530;9.200;2022-07-24T13:18:47;9.67;;;6.93;;
417;SDS011;49;48.530;9.200;2022-07-24T13:21:48;9.07;;;6.63;;
417;SDS011;49;48.530;9.200;2022-07-24T13:26:51;8.30;;;7.00;;
417;SDS011;49;48.530;9.200;2022-07-24T13:29:18;13.27;;;7.63;;
417;SDS011;49;48.530;9.200;2022-07-24T13:31:45;10.90;;;7.40;;
417;SDS011;49;48.530;9.200;2022-07-24T13:34:24;9.20;;;6.87;;
417;SDS011;49;48.530;9.200;2022-07-24T13:36:59;11.27;;;6.57;;
417;SDS011;49;48.530;9.200;2022-07-24T13:39:26;13.03;;;6.97;;
417;SDS011;49;48.530;9.200;2022-07-24T13:42:05;9.97;;;6.67;;
417;SDS011;49;48.530;9.200;2022-07-24T13:44:48;11.03;;;7.00;;
417;SDS011;49;48.530;9.200;2022-07-24T13:47:50;13.03;;;6.80;;
417;SDS011;49;48.530;9.200;2022-07-24T13:50:17;11.03;;;7.03;;
417;SDS011;49;48.530;9.200;2022-07-24T13:52:46;9.00;;;6.77;;
417;SDS011;49;48.530;9.200;2022-07-24T13:58:51;9.20;;;7.03;;
417;SDS011;49;48.530;9.200;2022-07-24T14:01:27;12.03;;;7.07;;
417;SDS011;49;48.530;9.200;2022-07-24T14:03:57;8.50;;;6.63;;
417;SDS011;49;48.530;9.200;2022-07-24T14:06:40;12.87;;;7.27;;
417;SDS011;49;48.530;9.200;2022-07-24T14:09:47;12.33;;;7.50;;
417;SDS011;49;48.530;9.200;2022-07-24T14:12:19;9.97;;;7.73;;
417;SDS011;49;48.530;9.200;2022-07-24T14:15:11;11.77;;;7.13;;
417;SDS011;49;48.530;9.200;2022-07-24T14:17:43;11.10;;;7.10;;
417;SDS011;49;48.530;9.200;2022-07-24T14:20:16;12.00;;;6.80;;
417;SDS011;49;48.530;9.200;2022-07-24T14:23:27;10.33;;;6.50;;
417;SDS011;49;48.530;9.200;2022-07-24T14:26:15;14.00;;;7.30;;
417;SDS011;49;48.530;9.200;2022-07-24T14:32:13;9.67;;;7.10;;
417;SDS011;49;48.530;9.200;2022-07-24T14:35:17;11.00;;;7.40;;
417;SDS011;49;48.530;9.200;2022-07-24T14:37:58;10.30;;;7.10;;
417;SDS011;49;48.530;9.200;2022-07-24T14:40:32;8.87;;;6.97;;
417;SDS011;49;48.530;9.200;2022-07-24T14:43:01;8.97;;;6.33;;
417;SDS011;49;48.530;9.200;2022-07-24T14:45:28;8.03;;;6.63;;
417;SDS011;49;48.530;9.200;2022-07-24T14:47:55;9.43;;;7.37;;
417;SDS011;49;48.530;9.200;2022-07-24T14:50:23;10.10;;;7.67;;
417;SDS011;49;48.530;9.200;2022-07-24T14:52:50;8.80;;;6.97;;
417;SDS011;49;48.530;9.200;2022-07-24T14:55:46;26.23;;;7.33;;
417;SDS011;49;48.530;9.200;2022-07-24T14:58:18;11.90;;;7.10;;
417;SDS011;49;48.530;9.200;2022-07-24T15:00:45;8.90;;;7.37;;
417;SDS011;49;48.530;9.200;2022-07-24T15:03:13;9.57;;;7.40;;
417;SDS011;49;48.530;9.200;2022-07-24T15:05:41;9.63;;;7.90;;
417;SDS011;49;48.530;9.200;2022-07-24T15:08:08;15.80;;;7.07;;
417;SDS011;49;48.530;9.200;2022-07-24T15:10:35;21.17;;;7.90;;
417;SDS011;49;48.530;9.200;2022-07-24T15:13:02;8.63;;;7.20;;
417;SDS011;49;48.530;9.200;2022-07-24T15:15:30;11.53;;;7.40;;
417;SDS011;49;48.530;9.200;2022-07-24T15:17:57;12.97;;;7.70;;
417;SDS011;49;48.530;9.200;2022-07-24T15:20:24;8.47;;;7.00;;
417;SDS011;49;48.530;9.200;2022-07-24T15:22:51;10.90;;;7.50;;
417;SDS011;49;48.530;9.200;2022-07-24T15:25:19;10.23;;;7.63;;
417;SDS011;49;48.530;9.200;2022-07-24T15:27:49;13.43;;;7.37;;
417;SDS011;49;48.530;9.200;2022-07-24T15:30:18;9.13;;;7.43;;
417;SDS011;49;48.530;9.200;2022-07-24T15:32:47;11.37;;;7.80;;
417;SDS011;49;48.530;9.200;2022-07-24T15:35:15;8.43;;;6.30;;
417;SDS011;49;48.530;9.200;2022-07-24T15:37:46;11.30;;;7.50;;
417;SDS011;49;48.530;9.200;2022-07-24T15:40:14;10.70;;;7.00;;
417;SDS011;49;48.530;9.200;2022-07-24T15:42:41;9.10;;;6.63;;
417;SDS011;49;48.530;9.200;2022-07-24T15:45:09;12.10;;;7.17;;
417;SDS011;49;48.530;9.200;2022-07-24T15:47:36;10.67;;;7.07;;
417;SDS011;49;48.530;9.200;2022-07-24T15:50:05;20.47;;;7.50;;
417;SDS011;49;48.530;9.200;2022-07-24T15:52:33;10.33;;;8.07;;
417;SDS011;49;48.530;9.200;2022-07-24T15:55:00;8.03;;;6.93;;
417;SDS011;49;48.530;9.200;2022-07-24T15:57:27;9.87;;;7.40;;
417;SDS011;49;48.530;9.200;2022-07-24T15:59:54;13.73;;;7.50;;
417;SDS011;49;48.530;9.200;2022-07-24T16:02:22;14.00;;;6.90;;
417;SDS011;49;48.530;9.200;2022-07-24T16:04:49;11.57;;;7.17;;
417;SDS011;49;48.530;9.200;2022-07-24T16:07:18;9.50;;;7.03;;
417;SDS011;49;48.530;9.200;2022-07-24T16:09:46;19.13;;;7.20;;
417;SDS011;49;48.530;9.200;2022-07-24T16:12:14;12.43;;;7.37;;
417;SDS011;49;48.530;9.200;2022-07-24T16:14:45;11.77;;;6.37;;
417;SDS011;49;48.530;9.200;2022-07-24T16:17:12;8.47;;;6.97;;
417;SDS011;49;48.530;9.200;2022-07-24T16:19:50;9.53;;;6.63;;
417;SDS011;49;48.530;9.200;2022-07-24T16:22:18;11.63;;;6.47;;
417;SDS011;49;48.530;9.200;2022-07-24T16:24:45;12.83;;;7.23;;
417;SDS011;49;48.530;9.200;2022-07-24T16:27:12;8.47;;;6.47;;
417;SDS011;49;48.530;9.200;2022-07-24T16:29:39;9.57;;;7.30;;
417;SDS011;49;48.530;9.200;2022-07-24T16:32:06;12.40;;;7.10;;
417;SDS011;49;48.530;9.200;2022-07-24T16:34:33;8.93;;;7.17;;